sensor_id;sensor_type;location;lat;lon;timestamp;temperature;humidity
20068;DHT22;10194;50.824;7.134;2023-06-24T00:02:11;16.60;99.90
20068;DHT22;10194;50.824;7.134;2023-06-24T00:04:38;16.40;99.90
20068;DHT22;10194;50.824;7.134;2023-06-24T00:07:03;16.40;99.90
20068;DHT22;10194;50.824;7.134;2023-06-24T00:09:29;16.40;99.90
20068;DHT22;10194;50.824;7.134;2023-06-24T00:11:56;16.40;99.90
20068;DHT22;10194;50.824;7.134;2023-06-24T00:14:27;16.30;99.90
20068;DHT22;10194;50.824;7.134;2023-06-24T00:16:54;16.30;99.90
20068;DHT22;10194;50.824;7.134;2023-06-24T00:19:23;16.20;99.90
20068;DHT22;10194;50.824;7.134;2023-06-24T00:21:50;16.20;99.90
20068;DHT22;10194;50.824;7.134;2023-06-24T00:24:23;16.30;99.90
20068;DHT22;10194;50.824;7.134;2023-06-24T00:26:51;16.30;99.90
20068;DHT22;10194;50.824;7.134;2023-06-24T00:29:18;16.30;99.90
20068;DHT22;10194;50.824;7.134;2023-06-24T00:31:44;16.20;99.90
20068;DHT22;10194;50.824;7.134;2023-06-24T00:34:09;16.10;99.90
20068;DHT22;10194;50.824;7.134;2023-06-24T00:36:35;16.10;99.90
20068;DHT22;10194;50.824;7.134;2023-06-24T00:39:02;16.00;99.90
20068;DHT22;10194;50.824;7.134;2023-06-24T00:41:30;16.00;99.90
20068;DHT22;10194;50.824;7.134;2023-06-24T00:43:56;16.00;99.90
20068;DHT22;10194;50.824;7.134;2023-06-24T00:46:26;16.00;99.90
20068;DHT22;10194;50.824;7.134;2023-06-24T00:48:54;16.00;99.90
20068;DHT22;10194;50.824;7.134;2023-06-24T00:51:20;16.00;99.90
20068;DHT22;10194;50.824;7.134;2023-06-24T00:53:47;15.90;99.90
20068;DHT22;10194;50.824;7.134;2023-06-24T00:56:14;16.00;99.90
20068;DHT22;10194;50.824;7.134;2023-06-24T00:58:44;15.90;99.90
20068;DHT22;10194;50.824;7.134;2023-06-24T01:01:10;16.20;99.90
20068;DHT22;10194;50.824;7.134;2023-06-24T01:03:37;16.30;99.90
20068;DHT22;10194;50.824;7.134;2023-06-24T01:06:04;16.40;99.90
20068;DHT22;10194;50.824;7.134;2023-06-24T01:08:29;16.40;99.90
20068;DHT22;10194;50.824;7.134;2023-06-24T01:10:55;16.40;99.90
20068;DHT22;10194;50.824;7.134;2023-06-24T01:13:21;16.40;99.90
20068;DHT22;10194;50.824;7.134;2023-06-24T01:15:48;16.20;99.90
20068;DHT22;10194;50.824;7.134;2023-06-24T01:18:33;16.20;99.90
20068;DHT22;10194;50.824;7.134;2023-06-24T01:21:10;16.00;99.90
20068;DHT22;10194;50.824;7.134;2023-06-24T01:24:09;16.00;99.90
20068;DHT22;10194;50.824;7.134;2023-06-24T01:27:10;16.00;99.90
20068;DHT22;10194;50.824;7.134;2023-06-24T01:37:36;15.90;99.90
20068;DHT22;10194;50.824;7.134;2023-06-24T01:42:58;16.00;99.90
20068;DHT22;10194;50.824;7.134;2023-06-24T01:45:35;16.00;99.90
20068;DHT22;10194;50.824;7.134;2023-06-24T01:48:18;16.00;99.90
20068;DHT22;10194;50.824;7.134;2023-06-24T01:51:02;16.10;99.90
20068;DHT22;10194;50.824;7.134;2023-06-24T01:53:35;16.00;99.90
20068;DHT22;10194;50.824;7.134;2023-06-24T01:56:06;16.00;99.90
20068;DHT22;10194;50.824;7.134;2023-06-24T01:58:34;16.00;99.90
20068;DHT22;10194;50.824;7.134;2023-06-24T02:01:02;16.00;99.90
20068;DHT22;10194;50.824;7.134;2023-06-24T02:03:28;16.00;99.90
20068;DHT22;10194;50.824;7.134;2023-06-24T02:05:56;16.00;99.90
20068;DHT22;10194;50.824;7.134;2023-06-24T02:08:23;15.90;99.90
20068;DHT22;10194;50.824;7.134;2023-06-24T02:10:51;15.90;99.90
20068;DHT22;10194;50.824;7.134;2023-06-24T02:13:17;15.90;99.90
20068;DHT22;10194;50.824;7.134;2023-06-24T02:15:44;15.90;99.90
20068;DHT22;10194;50.824;7.134;2023-06-24T02:18:12;15.90;99.90
20068;DHT22;10194;50.824;7.134;2023-06-24T02:20:41;15.90;99.90
20068;DHT22;10194;50.824;7.134;2023-06-24T02:23:11;15.90;99.90
20068;DHT22;10194;50.824;7.134;2023-06-24T02:25:38;15.80;99.90
20068;DHT22;10194;50.824;7.134;2023-06-24T02:28:09;15.80;99.90
20068;DHT22;10194;50.824;7.134;2023-06-24T02:30:37;15.80;99.90
20068;DHT22;10194;50.824;7.134;2023-06-24T02:33:03;15.80;99.90
20068;DHT22;10194;50.824;7.134;2023-06-24T02:35:29;15.80;99.90
20068;DHT22;10194;50.824;7.134;2023-06-24T02:37:55;15.70;99.90
20068;DHT22;10194;50.824;7.134;2023-06-24T02:40:21;15.70;99.90
20068;DHT22;10194;50.824;7.134;2023-06-24T02:42:46;15.70;99.90
20068;DHT22;10194;50.824;7.134;2023-06-24T02:45:12;15.70;99.90
20068;DHT22;10194;50.824;7.134;2023-06-24T02:47:40;15.70;99.90
20068;DHT22;10194;50.824;7.134;2023-06-24T02:50:08;15.70;99.90
20068;DHT22;10194;50.824;7.134;2023-06-24T02:52:34;15.70;99.90
20068;DHT22;10194;50.824;7.134;2023-06-24T02:55:02;15.70;99.90
20068;DHT22;10194;50.824;7.134;2023-06-24T02:57:28;15.70;99.90
20068;DHT22;10194;50.824;7.134;2023-06-24T02:59:55;15.60;99.90
20068;DHT22;10194;50.824;7.134;2023-06-24T03:02:21;15.70;99.90
20068;DHT22;10194;50.824;7.134;2023-06-24T03:04:49;15.60;99.90
20068;DHT22;10194;50.824;7.134;2023-06-24T03:07:16;15.60;99.90
20068;DHT22;10194;50.824;7.134;2023-06-24T03:09:46;15.60;99.90
20068;DHT22;10194;50.824;7.134;2023-06-24T03:12:12;15.60;99.90
20068;DHT22;10194;50.824;7.134;2023-06-24T03:14:37;15.60;99.90
20068;DHT22;10194;50.824;7.134;2023-06-24T03:17:03;15.50;99.90
20068;DHT22;10194;50.824;7.134;2023-06-24T03:19:29;15.60;99.90
20068;DHT22;10194;50.824;7.134;2023-06-24T03:21:55;15.50;99.90
20068;DHT22;10194;50.824;7.134;2023-06-24T03:24:21;15.50;99.90
20068;DHT22;10194;50.824;7.134;2023-06-24T03:26:46;15.50;99.90
20068;DHT22;10194;50.824;7.134;2023-06-24T03:29:12;15.50;99.90
20068;DHT22;10194;50.824;7.134;2023-06-24T03:31:38;15.40;99.90
20068;DHT22;10194;50.824;7.134;2023-06-24T03:34:10;15.50;99.90
20068;DHT22;10194;50.824;7.134;2023-06-24T03:36:35;15.40;99.90
20068;DHT22;10194;50.824;7.134;2023-06-24T03:39:04;15.40;99.90
20068;DHT22;10194;50.824;7.134;2023-06-24T03:41:30;15.40;99.90
20068;DHT22;10194;50.824;7.134;2023-06-24T03:43:56;15.40;99.90
20068;DHT22;10194;50.824;7.134;2023-06-24T03:46:22;15.40;99.90
20068;DHT22;10194;50.824;7.134;2023-06-24T03:48:50;15.40;99.90
20068;DHT22;10194;50.824;7.134;2023-06-24T03:51:15;15.40;99.90
20068;DHT22;10194;50.824;7.134;2023-06-24T03:53:41;15.40;99.90
20068;DHT22;10194;50.824;7.134;2023-06-24T03:56:07;15.40;99.90
20068;DHT22;10194;50.824;7.134;2023-06-24T03:58:33;15.50;99.90
20068;DHT22;10194;50.824;7.134;2023-06-24T04:01:02;15.50;99.90
20068;DHT22;10194;50.824;7.134;2023-06-24T04:03:28;15.60;99.90
20068;DHT22;10194;50.824;7.134;2023-06-24T04:05:57;15.60;99.90
20068;DHT22;10194;50.824;7.134;2023-06-24T04:08:23;15.60;99.90
20068;DHT22;10194;50.824;7.134;2023-06-24T04:10:55;15.60;99.90
20068;DHT22;10194;50.824;7.134;2023-06-24T04:13:21;15.60;99.90
20068;DHT22;10194;50.824;7.134;2023-06-24T04:15:46;15.60;99.90
20068;DHT22;10194;50.824;7.134;2023-06-24T04:18:12;15.60;99.90
20068;DHT22;10194;50.824;7.134;2023-06-24T04:20:38;15.60;99.90
20068;DHT22;10194;50.824;7.134;2023-06-24T04:23:04;15.60;99.90
20068;DHT22;10194;50.824;7.134;2023-06-24T04:25:31;15.70;99.90
20068;DHT22;10194;50.824;7.134;2023-06-24T04:27:57;15.70;99.90
20068;DHT22;10194;50.824;7.134;2023-06-24T04:30:23;15.70;99.90
20068;DHT22;10194;50.824;7.134;2023-06-24T04:32:48;15.80;99.90
20068;DHT22;10194;50.824;7.134;2023-06-24T04:35:14;15.80;99.90
20068;DHT22;10194;50.824;7.134;2023-06-24T04:37:40;15.90;99.90
20068;DHT22;10194;50.824;7.134;2023-06-24T04:40:06;15.90;99.90
20068;DHT22;10194;50.824;7.134;2023-06-24T04:42:32;15.90;99.90
20068;DHT22;10194;50.824;7.134;2023-06-24T04:44:58;16.00;99.90
20068;DHT22;10194;50.824;7.134;2023-06-24T04:47:24;16.00;99.90
20068;DHT22;10194;50.824;7.134;2023-06-24T04:49:49;16.10;99.90
20068;DHT22;10194;50.824;7.134;2023-06-24T04:52:15;16.10;99.90
20068;DHT22;10194;50.824;7.134;2023-06-24T04:54:41;16.20;99.90
20068;DHT22;10194;50.824;7.134;2023-06-24T04:57:14;16.20;99.90
20068;DHT22;10194;50.824;7.134;2023-06-24T04:59:55;16.30;99.90
20068;DHT22;10194;50.824;7.134;2023-06-24T05:02:21;16.30;99.90
20068;DHT22;10194;50.824;7.134;2023-06-24T05:04:47;16.30;99.90
20068;DHT22;10194;50.824;7.134;2023-06-24T05:07:13;16.40;99.90
20068;DHT22;10194;50.824;7.134;2023-06-24T05:09:39;16.50;99.90
20068;DHT22;10194;50.824;7.134;2023-06-24T05:12:05;16.60;99.90
20068;DHT22;10194;50.824;7.134;2023-06-24T05:14:34;16.60;99.90
20068;DHT22;10194;50.824;7.134;2023-06-24T05:17:00;16.80;99.90
20068;DHT22;10194;50.824;7.134;2023-06-24T05:19:26;16.80;99.90
20068;DHT22;10194;50.824;7.134;2023-06-24T05:21:52;16.80;99.90
20068;DHT22;10194;50.824;7.134;2023-06-24T05:24:18;16.80;99.90
20068;DHT22;10194;50.824;7.134;2023-06-24T05:26:46;16.90;99.90
20068;DHT22;10194;50.824;7.134;2023-06-24T05:29:14;17.00;99.90
20068;DHT22;10194;50.824;7.134;2023-06-24T05:31:40;17.10;99.90
20068;DHT22;10194;50.824;7.134;2023-06-24T05:34:06;17.10;99.90
20068;DHT22;10194;50.824;7.134;2023-06-24T05:36:33;17.20;99.90
20068;DHT22;10194;50.824;7.134;2023-06-24T05:38:59;17.20;99.90
20068;DHT22;10194;50.824;7.134;2023-06-24T05:41:25;17.30;99.90
20068;DHT22;10194;50.824;7.134;2023-06-24T05:44:04;17.30;99.90
20068;DHT22;10194;50.824;7.134;2023-06-24T05:46:32;17.40;99.90
20068;DHT22;10194;50.824;7.134;2023-06-24T05:48:58;17.50;99.90
20068;DHT22;10194;50.824;7.134;2023-06-24T05:51:24;17.70;99.90
20068;DHT22;10194;50.824;7.134;2023-06-24T05:53:49;17.80;99.90
20068;DHT22;10194;50.824;7.134;2023-06-24T05:56:15;17.90;99.90
20068;DHT22;10194;50.824;7.134;2023-06-24T05:58:41;18.10;99.90
20068;DHT22;10194;50.824;7.134;2023-06-24T06:01:10;18.20;99.90
20068;DHT22;10194;50.824;7.134;2023-06-24T06:03:36;18.30;99.90
20068;DHT22;10194;50.824;7.134;2023-06-24T06:06:02;18.40;99.90
20068;DHT22;10194;50.824;7.134;2023-06-24T06:08:28;18.50;99.90
20068;DHT22;10194;50.824;7.134;2023-06-24T06:10:53;18.60;99.90
20068;DHT22;10194;50.824;7.134;2023-06-24T06:13:19;18.70;99.90
20068;DHT22;10194;50.824;7.134;2023-06-24T06:15:45;18.90;99.90
20068;DHT22;10194;50.824;7.134;2023-06-24T06:18:12;19.00;99.90
20068;DHT22;10194;50.824;7.134;2023-06-24T06:20:37;19.20;99.90
20068;DHT22;10194;50.824;7.134;2023-06-24T06:23:03;19.10;99.90
20068;DHT22;10194;50.824;7.134;2023-06-24T06:25:29;19.20;99.90
20068;DHT22;10194;50.824;7.134;2023-06-24T06:27:55;19.40;99.90
20068;DHT22;10194;50.824;7.134;2023-06-24T06:30:20;19.50;99.90
20068;DHT22;10194;50.824;7.134;2023-06-24T06:32:46;19.60;99.90
20068;DHT22;10194;50.824;7.134;2023-06-24T06:35:12;19.80;99.90
20068;DHT22;10194;50.824;7.134;2023-06-24T06:37:38;19.80;99.90
20068;DHT22;10194;50.824;7.134;2023-06-24T06:40:04;20.00;99.90
20068;DHT22;10194;50.824;7.134;2023-06-24T06:42:30;20.40;99.90
20068;DHT22;10194;50.824;7.134;2023-06-24T06:44:56;20.60;99.90
20068;DHT22;10194;50.824;7.134;2023-06-24T06:47:22;20.80;99.90
20068;DHT22;10194;50.824;7.134;2023-06-24T06:49:48;20.90;99.90
20068;DHT22;10194;50.824;7.134;2023-06-24T06:52:14;20.90;99.90
20068;DHT22;10194;50.824;7.134;2023-06-24T06:54:40;21.00;99.90
20068;DHT22;10194;50.824;7.134;2023-06-24T06:57:05;21.00;99.90
20068;DHT22;10194;50.824;7.134;2023-06-24T06:59:32;21.20;99.90
20068;DHT22;10194;50.824;7.134;2023-06-24T07:01:58;21.20;99.90
20068;DHT22;10194;50.824;7.134;2023-06-24T07:04:24;21.20;99.90
20068;DHT22;10194;50.824;7.134;2023-06-24T07:06:50;21.60;99.90
20068;DHT22;10194;50.824;7.134;2023-06-24T07:09:16;22.10;99.90
20068;DHT22;10194;50.824;7.134;2023-06-24T07:11:42;22.90;99.90
20068;DHT22;10194;50.824;7.134;2023-06-24T07:14:08;23.40;99.90
20068;DHT22;10194;50.824;7.134;2023-06-24T07:16:34;24.20;99.90
20068;DHT22;10194;50.824;7.134;2023-06-24T07:19:00;24.80;99.90
20068;DHT22;10194;50.824;7.134;2023-06-24T07:21:26;25.50;99.90
20068;DHT22;10194;50.824;7.134;2023-06-24T07:23:51;25.80;99.90
20068;DHT22;10194;50.824;7.134;2023-06-24T07:26:17;26.20;99.90
20068;DHT22;10194;50.824;7.134;2023-06-24T07:28:43;26.60;99.90
20068;DHT22;10194;50.824;7.134;2023-06-24T07:31:09;26.70;99.90
20068;DHT22;10194;50.824;7.134;2023-06-24T07:33:35;27.10;99.90
20068;DHT22;10194;50.824;7.134;2023-06-24T07:36:01;27.10;99.90
20068;DHT22;10194;50.824;7.134;2023-06-24T07:38:28;27.10;99.90
20068;DHT22;10194;50.824;7.134;2023-06-24T07:40:55;26.40;99.90
20068;DHT22;10194;50.824;7.134;2023-06-24T07:43:21;25.80;99.90
20068;DHT22;10194;50.824;7.134;2023-06-24T07:45:47;26.00;99.90
20068;DHT22;10194;50.824;7.134;2023-06-24T07:48:13;26.30;99.90
20068;DHT22;10194;50.824;7.134;2023-06-24T07:50:39;26.40;99.90
20068;DHT22;10194;50.824;7.134;2023-06-24T07:53:05;26.60;99.90
20068;DHT22;10194;50.824;7.134;2023-06-24T07:55:31;26.30;99.90
20068;DHT22;10194;50.824;7.134;2023-06-24T07:57:57;25.80;99.90
20068;DHT22;10194;50.824;7.134;2023-06-24T08:00:24;25.30;99.90
20068;DHT22;10194;50.824;7.134;2023-06-24T08:02:50;25.20;99.90
20068;DHT22;10194;50.824;7.134;2023-06-24T08:05:16;25.50;99.90
20068;DHT22;10194;50.824;7.134;2023-06-24T08:07:43;25.30;99.90
20068;DHT22;10194;50.824;7.134;2023-06-24T08:10:09;26.00;99.90
20068;DHT22;10194;50.824;7.134;2023-06-24T08:12:35;26.60;99.90
20068;DHT22;10194;50.824;7.134;2023-06-24T08:15:01;25.70;99.90
20068;DHT22;10194;50.824;7.134;2023-06-24T08:17:27;25.70;99.90
20068;DHT22;10194;50.824;7.134;2023-06-24T08:19:53;25.70;99.90
20068;DHT22;10194;50.824;7.134;2023-06-24T08:22:19;25.80;99.90
20068;DHT22;10194;50.824;7.134;2023-06-24T08:24:45;26.00;99.90
20068;DHT22;10194;50.824;7.134;2023-06-24T08:27:10;25.70;99.90
20068;DHT22;10194;50.824;7.134;2023-06-24T08:29:36;25.50;99.90
20068;DHT22;10194;50.824;7.134;2023-06-24T08:32:04;25.70;99.90
20068;DHT22;10194;50.824;7.134;2023-06-24T08:34:32;26.30;99.90
20068;DHT22;10194;50.824;7.134;2023-06-24T08:36:58;26.70;99.90
20068;DHT22;10194;50.824;7.134;2023-06-24T08:39:24;26.80;99.90
20068;DHT22;10194;50.824;7.134;2023-06-24T08:41:50;27.20;99.90
20068;DHT22;10194;50.824;7.134;2023-06-24T08:44:16;27.60;99.90
20068;DHT22;10194;50.824;7.134;2023-06-24T08:46:41;27.50;99.90
20068;DHT22;10194;50.824;7.134;2023-06-24T08:52:04;27.90;99.90
20068;DHT22;10194;50.824;7.134;2023-06-24T08:54:35;27.70;99.90
20068;DHT22;10194;50.824;7.134;2023-06-24T08:57:02;27.80;99.90
20068;DHT22;10194;50.824;7.134;2023-06-24T08:59:31;27.80;99.90
20068;DHT22;10194;50.824;7.134;2023-06-24T09:01:58;27.20;99.90
20068;DHT22;10194;50.824;7.134;2023-06-24T09:04:24;27.10;99.90
20068;DHT22;10194;50.824;7.134;2023-06-24T09:06:50;27.30;99.90
20068;DHT22;10194;50.824;7.134;2023-06-24T09:09:20;27.60;99.90
20068;DHT22;10194;50.824;7.134;2023-06-24T09:11:52;27.70;99.90
20068;DHT22;10194;50.824;7.134;2023-06-24T09:14:25;27.70;99.90
20068;DHT22;10194;50.824;7.134;2023-06-24T09:17:00;27.70;99.90
20068;DHT22;10194;50.824;7.134;2023-06-24T09:19:35;27.90;99.90
20068;DHT22;10194;50.824;7.134;2023-06-24T09:22:03;28.10;99.90
20068;DHT22;10194;50.824;7.134;2023-06-24T09:24:33;28.10;99.90
20068;DHT22;10194;50.824;7.134;2023-06-24T09:27:00;27.90;99.00
20068;DHT22;10194;50.824;7.134;2023-06-24T09:29:33;27.70;99.90
20068;DHT22;10194;50.824;7.134;2023-06-24T09:32:03;27.90;99.90
20068;DHT22;10194;50.824;7.134;2023-06-24T09:34:29;27.30;99.40
20068;DHT22;10194;50.824;7.134;2023-06-24T09:36:57;27.10;99.90
20068;DHT22;10194;50.824;7.134;2023-06-24T09:39:25;26.30;99.90
20068;DHT22;10194;50.824;7.134;2023-06-24T09:41:55;26.60;99.90
20068;DHT22;10194;50.824;7.134;2023-06-24T09:44:21;26.30;99.90
20068;DHT22;10194;50.824;7.134;2023-06-24T09:46:47;26.50;99.90
20068;DHT22;10194;50.824;7.134;2023-06-24T09:49:13;27.00;99.90
20068;DHT22;10194;50.824;7.134;2023-06-24T09:51:47;26.90;99.90
20068;DHT22;10194;50.824;7.134;2023-06-24T09:54:15;27.00;99.90
20068;DHT22;10194;50.824;7.134;2023-06-24T09:56:50;27.30;99.90
20068;DHT22;10194;50.824;7.134;2023-06-24T09:59:19;27.60;99.90
20068;DHT22;10194;50.824;7.134;2023-06-24T10:01:47;27.70;99.90
20068;DHT22;10194;50.824;7.134;2023-06-24T10:04:16;28.00;99.90
20068;DHT22;10194;50.824;7.134;2023-06-24T10:06:44;28.20;99.90
20068;DHT22;10194;50.824;7.134;2023-06-24T10:09:10;27.50;98.30
20068;DHT22;10194;50.824;7.134;2023-06-24T10:11:39;27.20;99.90
20068;DHT22;10194;50.824;7.134;2023-06-24T10:14:05;27.70;99.90
20068;DHT22;10194;50.824;7.134;2023-06-24T10:16:31;27.70;98.40
20068;DHT22;10194;50.824;7.134;2023-06-24T10:19:02;27.40;98.20
20068;DHT22;10194;50.824;7.134;2023-06-24T10:24:12;28.00;99.90
20068;DHT22;10194;50.824;7.134;2023-06-24T10:26:40;28.30;98.70
20068;DHT22;10194;50.824;7.134;2023-06-24T10:34:30;27.80;99.10
20068;DHT22;10194;50.824;7.134;2023-06-24T10:39:55;27.60;97.10
20068;DHT22;10194;50.824;7.134;2023-06-24T10:42:32;27.60;96.30
20068;DHT22;10194;50.824;7.134;2023-06-24T10:47:48;27.40;99.10
20068;DHT22;10194;50.824;7.134;2023-06-24T10:50:17;27.30;97.90
20068;DHT22;10194;50.824;7.134;2023-06-24T10:52:48;27.10;96.10
20068;DHT22;10194;50.824;7.134;2023-06-24T10:55:18;26.90;97.70
20068;DHT22;10194;50.824;7.134;2023-06-24T10:57:44;26.50;97.90
20068;DHT22;10194;50.824;7.134;2023-06-24T11:00:11;26.60;99.30
20068;DHT22;10194;50.824;7.134;2023-06-24T11:02:38;26.80;97.60
20068;DHT22;10194;50.824;7.134;2023-06-24T11:05:05;26.80;98.40
20068;DHT22;10194;50.824;7.134;2023-06-24T11:07:32;26.90;97.50
20068;DHT22;10194;50.824;7.134;2023-06-24T11:10:11;26.80;97.90
20068;DHT22;10194;50.824;7.134;2023-06-24T11:12:39;26.80;98.60
20068;DHT22;10194;50.824;7.134;2023-06-24T11:15:11;27.10;96.70
20068;DHT22;10194;50.824;7.134;2023-06-24T11:17:38;27.30;95.70
20068;DHT22;10194;50.824;7.134;2023-06-24T11:20:12;27.90;98.10
20068;DHT22;10194;50.824;7.134;2023-06-24T11:22:40;28.50;97.70
20068;DHT22;10194;50.824;7.134;2023-06-24T11:25:06;28.50;95.00
20068;DHT22;10194;50.824;7.134;2023-06-24T11:27:40;28.60;94.60
20068;DHT22;10194;50.824;7.134;2023-06-24T11:30:06;28.40;97.20
20068;DHT22;10194;50.824;7.134;2023-06-24T11:32:40;28.40;95.70
20068;DHT22;10194;50.824;7.134;2023-06-24T11:35:09;28.30;96.50
20068;DHT22;10194;50.824;7.134;2023-06-24T11:37:35;27.80;92.20
20068;DHT22;10194;50.824;7.134;2023-06-24T11:40:06;27.90;96.90
20068;DHT22;10194;50.824;7.134;2023-06-24T11:42:37;27.70;94.70
20068;DHT22;10194;50.824;7.134;2023-06-24T11:45:07;27.30;92.80
20068;DHT22;10194;50.824;7.134;2023-06-24T11:47:38;27.20;94.80
20068;DHT22;10194;50.824;7.134;2023-06-24T11:50:06;27.10;95.70
20068;DHT22;10194;50.824;7.134;2023-06-24T11:52:41;27.30;95.50
20068;DHT22;10194;50.824;7.134;2023-06-24T11:55:15;27.20;94.60
20068;DHT22;10194;50.824;7.134;2023-06-24T11:57:50;27.20;94.70
20068;DHT22;10194;50.824;7.134;2023-06-24T12:03:04;27.20;92.30
20068;DHT22;10194;50.824;7.134;2023-06-24T12:05:32;27.40;93.80
20068;DHT22;10194;50.824;7.134;2023-06-24T12:08:06;27.60;96.70
20068;DHT22;10194;50.824;7.134;2023-06-24T12:10:34;28.00;92.90
20068;DHT22;10194;50.824;7.134;2023-06-24T12:13:02;27.90;92.90
20068;DHT22;10194;50.824;7.134;2023-06-24T12:15:29;27.70;93.40
20068;DHT22;10194;50.824;7.134;2023-06-24T12:17:55;27.50;91.50
20068;DHT22;10194;50.824;7.134;2023-06-24T12:20:21;27.40;91.40
20068;DHT22;10194;50.824;7.134;2023-06-24T12:22:48;27.20;92.50
20068;DHT22;10194;50.824;7.134;2023-06-24T12:25:14;27.30;94.80
20068;DHT22;10194;50.824;7.134;2023-06-24T12:27:42;27.60;94.00
20068;DHT22;10194;50.824;7.134;2023-06-24T12:30:09;27.70;94.70
20068;DHT22;10194;50.824;7.134;2023-06-24T12:32:36;27.70;94.20
20068;DHT22;10194;50.824;7.134;2023-06-24T12:35:03;27.90;92.40
20068;DHT22;10194;50.824;7.134;2023-06-24T12:37:32;28.30;94.70
20068;DHT22;10194;50.824;7.134;2023-06-24T12:39:59;27.90;91.70
20068;DHT22;10194;50.824;7.134;2023-06-24T12:42:25;27.50;91.70
20068;DHT22;10194;50.824;7.134;2023-06-24T12:44:51;27.40;95.00
20068;DHT22;10194;50.824;7.134;2023-06-24T12:47:17;27.70;94.10
20068;DHT22;10194;50.824;7.134;2023-06-24T12:49:43;27.20;91.00
20068;DHT22;10194;50.824;7.134;2023-06-24T12:52:09;27.20;91.90
20068;DHT22;10194;50.824;7.134;2023-06-24T12:54:35;27.10;90.30
20068;DHT22;10194;50.824;7.134;2023-06-24T12:57:01;27.00;90.80
20068;DHT22;10194;50.824;7.134;2023-06-24T12:59:27;27.00;90.20
20068;DHT22;10194;50.824;7.134;2023-06-24T13:01:53;27.20;93.50
20068;DHT22;10194;50.824;7.134;2023-06-24T13:04:19;27.40;93.20
20068;DHT22;10194;50.824;7.134;2023-06-24T13:06:47;27.60;92.10
20068;DHT22;10194;50.824;7.134;2023-06-24T13:09:13;27.70;91.10
20068;DHT22;10194;50.824;7.134;2023-06-24T13:11:39;27.80;91.00
20068;DHT22;10194;50.824;7.134;2023-06-24T13:14:05;27.20;91.10
20068;DHT22;10194;50.824;7.134;2023-06-24T13:16:31;27.10;90.40
20068;DHT22;10194;50.824;7.134;2023-06-24T13:18:58;27.20;90.90
20068;DHT22;10194;50.824;7.134;2023-06-24T13:21:24;27.40;93.20
20068;DHT22;10194;50.824;7.134;2023-06-24T13:23:49;27.50;90.70
20068;DHT22;10194;50.824;7.134;2023-06-24T13:26:15;27.50;90.30
20068;DHT22;10194;50.824;7.134;2023-06-24T13:28:41;27.60;91.20
20068;DHT22;10194;50.824;7.134;2023-06-24T13:31:07;27.60;92.30
20068;DHT22;10194;50.824;7.134;2023-06-24T13:33:33;27.50;91.50
20068;DHT22;10194;50.824;7.134;2023-06-24T13:35:59;27.40;90.10
20068;DHT22;10194;50.824;7.134;2023-06-24T13:38:24;27.40;91.80
20068;DHT22;10194;50.824;7.134;2023-06-24T13:40:51;27.60;91.80
20068;DHT22;10194;50.824;7.134;2023-06-24T13:43:17;27.70;90.20
20068;DHT22;10194;50.824;7.134;2023-06-24T13:45:43;27.40;87.60
20068;DHT22;10194;50.824;7.134;2023-06-24T13:48:09;27.30;90.00
20068;DHT22;10194;50.824;7.134;2023-06-24T13:50:34;27.60;90.70
20068;DHT22;10194;50.824;7.134;2023-06-24T13:53:00;27.80;90.10
20068;DHT22;10194;50.824;7.134;2023-06-24T13:55:26;27.90;91.60
20068;DHT22;10194;50.824;7.134;2023-06-24T13:57:52;27.80;89.70
20068;DHT22;10194;50.824;7.134;2023-06-24T14:00:19;27.60;87.90
20068;DHT22;10194;50.824;7.134;2023-06-24T14:02:45;27.60;89.60
20068;DHT22;10194;50.824;7.134;2023-06-24T14:05:11;27.60;91.20
20068;DHT22;10194;50.824;7.134;2023-06-24T14:07:37;27.60;89.40
20068;DHT22;10194;50.824;7.134;2023-06-24T14:10:02;27.60;89.00
20068;DHT22;10194;50.824;7.134;2023-06-24T14:12:29;27.40;87.60
20068;DHT22;10194;50.824;7.134;2023-06-24T14:14:55;27.40;87.30
20068;DHT22;10194;50.824;7.134;2023-06-24T14:17:21;27.50;91.20
20068;DHT22;10194;50.824;7.134;2023-06-24T14:19:50;27.70;90.10
20068;DHT22;10194;50.824;7.134;2023-06-24T14:22:15;27.70;87.30
20068;DHT22;10194;50.824;7.134;2023-06-24T14:24:43;27.70;89.10
20068;DHT22;10194;50.824;7.134;2023-06-24T14:27:08;27.70;87.10
20068;DHT22;10194;50.824;7.134;2023-06-24T14:29:34;27.60;88.80
20068;DHT22;10194;50.824;7.134;2023-06-24T14:32:00;27.70;84.50
20068;DHT22;10194;50.824;7.134;2023-06-24T14:34:26;27.70;84.20
20068;DHT22;10194;50.824;7.134;2023-06-24T14:36:55;27.70;85.30
20068;DHT22;10194;50.824;7.134;2023-06-24T14:39:21;27.70;87.80
20068;DHT22;10194;50.824;7.134;2023-06-24T14:41:47;27.50;82.30
20068;DHT22;10194;50.824;7.134;2023-06-24T14:44:12;27.60;82.10
20068;DHT22;10194;50.824;7.134;2023-06-24T14:46:38;27.50;80.60
20068;DHT22;10194;50.824;7.134;2023-06-24T14:49:04;27.40;80.80
20068;DHT22;10194;50.824;7.134;2023-06-24T14:51:30;27.20;82.60
20068;DHT22;10194;50.824;7.134;2023-06-24T14:53:55;27.00;81.50
20068;DHT22;10194;50.824;7.134;2023-06-24T14:56:21;27.20;79.50
20068;DHT22;10194;50.824;7.134;2023-06-24T14:58:47;27.20;82.90
20068;DHT22;10194;50.824;7.134;2023-06-24T15:01:13;27.30;86.30
20068;DHT22;10194;50.824;7.134;2023-06-24T15:03:38;27.50;84.00
20068;DHT22;10194;50.824;7.134;2023-06-24T15:06:04;27.60;83.10
20068;DHT22;10194;50.824;7.134;2023-06-24T15:08:30;27.70;81.70
20068;DHT22;10194;50.824;7.134;2023-06-24T15:10:55;27.70;77.10
20068;DHT22;10194;50.824;7.134;2023-06-24T15:13:21;27.80;79.80
20068;DHT22;10194;50.824;7.134;2023-06-24T15:15:47;27.80;80.70
20068;DHT22;10194;50.824;7.134;2023-06-24T15:18:13;27.80;79.00
20068;DHT22;10194;50.824;7.134;2023-06-24T15:20:40;27.80;77.00
20068;DHT22;10194;50.824;7.134;2023-06-24T15:23:05;27.80;76.80
20068;DHT22;10194;50.824;7.134;2023-06-24T15:25:31;27.60;74.60
20068;DHT22;10194;50.824;7.134;2023-06-24T15:27:57;27.40;75.60
20068;DHT22;10194;50.824;7.134;2023-06-24T15:30:24;27.50;74.60
20068;DHT22;10194;50.824;7.134;2023-06-24T15:32:51;27.60;76.60
20068;DHT22;10194;50.824;7.134;2023-06-24T15:35:17;27.60;77.70
20068;DHT22;10194;50.824;7.134;2023-06-24T15:37:42;27.70;80.20
20068;DHT22;10194;50.824;7.134;2023-06-24T15:40:08;27.70;79.70
20068;DHT22;10194;50.824;7.134;2023-06-24T15:42:35;27.60;79.70
20068;DHT22;10194;50.824;7.134;2023-06-24T15:45:03;27.40;79.70
20068;DHT22;10194;50.824;7.134;2023-06-24T15:47:30;27.50;80.90
20068;DHT22;10194;50.824;7.134;2023-06-24T15:49:56;27.70;80.30
20068;DHT22;10194;50.824;7.134;2023-06-24T15:52:21;27.50;78.10
20068;DHT22;10194;50.824;7.134;2023-06-24T15:54:47;27.50;78.80
20068;DHT22;10194;50.824;7.134;2023-06-24T15:57:13;27.50;78.70
20068;DHT22;10194;50.824;7.134;2023-06-24T15:59:39;27.60;79.00
20068;DHT22;10194;50.824;7.134;2023-06-24T16:02:05;27.60;78.50